createdAt,value
2024-01-29T00:00:53.073Z,69.68
2024-01-29T00:03:22.575Z,69.82
2024-01-29T00:05:52.467Z,69.79
2024-01-29T00:08:21.639Z,69.72
2024-01-29T00:10:51.082Z,69.85
2024-01-29T00:13:20.890Z,69.78
2024-01-29T00:15:50.129Z,69.89
2024-01-29T00:18:19.310Z,70.08
2024-01-29T00:20:48.569Z,70.39
2024-01-29T00:23:18.133Z,70.44
2024-01-29T00:25:47.603Z,70.43
2024-01-29T00:28:16.500Z,70.64
2024-01-29T00:30:45.627Z,70.89
2024-01-29T00:33:14.848Z,71.04
2024-01-29T00:35:43.921Z,70.91
2024-01-29T00:38:13.155Z,71.01
2024-01-29T00:40:42.153Z,70.97
2024-01-29T00:43:11.384Z,71.17
2024-01-29T00:45:40.577Z,71.33
2024-01-29T00:48:10.779Z,71.31
2024-01-29T00:50:39.788Z,71.42
2024-01-29T00:53:08.803Z,71.62
2024-01-29T00:55:37.754Z,71.68
2024-01-29T00:58:07.483Z,71.65
2024-01-29T01:00:36.704Z,71.83
2024-01-29T01:03:06.009Z,72.07
2024-01-29T01:05:35.109Z,72.18
2024-01-29T01:08:04.793Z,72.28
2024-01-29T01:10:34.210Z,72.53
2024-01-29T01:13:03.454Z,72.67
2024-01-29T01:15:32.613Z,72.96
2024-01-29T01:18:02.082Z,73.17
2024-01-29T01:20:31.049Z,73.58
2024-01-29T01:23:01.306Z,74.04
2024-01-29T01:25:30.456Z,74.17
2024-01-29T01:27:59.979Z,74.32
2024-01-29T01:30:29.418Z,74.33
2024-01-29T01:32:58.552Z,74.45
2024-01-29T01:35:27.539Z,74.51
2024-01-29T01:37:56.526Z,74.48
2024-01-29T01:40:25.615Z,74.69
2024-01-29T01:42:54.743Z,74.68
2024-01-29T01:45:24.449Z,74.80
2024-01-29T01:47:53.506Z,74.58
2024-01-29T01:50:23.352Z,74.63
2024-01-29T01:52:52.350Z,74.60
2024-01-29T01:55:21.386Z,74.52
2024-01-29T01:57:50.526Z,74.36
2024-01-29T02:00:20.057Z,74.50
2024-01-29T02:02:49.169Z,74.58
2024-01-29T02:05:18.364Z,74.55
2024-01-29T02:07:47.496Z,74.61
2024-01-29T02:10:16.904Z,74.66
2024-01-29T02:12:45.926Z,74.71
2024-01-29T02:15:15.064Z,74.78
2024-01-29T02:17:44.037Z,75.01
2024-01-29T02:20:13.478Z,75.13
2024-01-29T02:22:44.692Z,75.36
2024-01-29T02:25:13.859Z,75.45
2024-01-29T02:27:43.055Z,75.60
2024-01-29T02:30:13.618Z,75.68
2024-01-29T02:32:42.835Z,75.93
2024-01-29T02:35:12.540Z,76.08
2024-01-29T02:37:41.855Z,76.45
2024-01-29T02:40:11.773Z,76.49
2024-01-29T02:42:41.909Z,76.64
2024-01-29T02:45:11.255Z,76.95
2024-01-29T02:47:40.319Z,77.14
2024-01-29T02:50:09.957Z,77.31
2024-01-29T02:52:38.965Z,77.65
2024-01-29T02:55:08.614Z,77.62
2024-01-29T02:57:37.880Z,77.73
2024-01-29T03:00:07.870Z,78.03
2024-01-29T03:02:37.066Z,78.12
2024-01-29T03:05:08.304Z,78.24
2024-01-29T03:07:37.248Z,78.30
2024-01-29T03:10:07.082Z,78.36
2024-01-29T03:12:36.122Z,78.38
2024-01-29T03:15:05.914Z,78.59
2024-01-29T03:17:35.576Z,78.74
2024-01-29T03:20:05.287Z,78.84
2024-01-29T03:22:34.362Z,78.98
2024-01-29T03:25:03.496Z,79.06
2024-01-29T03:27:32.642Z,79.47
2024-01-29T03:30:01.831Z,79.57
2024-01-29T03:32:30.902Z,79.62
2024-01-29T03:35:00.123Z,79.68
2024-01-29T03:37:29.227Z,79.96
2024-01-29T03:39:58.282Z,80.16
2024-01-29T03:42:27.752Z,80.16
2024-01-29T03:44:57.028Z,80.41
2024-01-29T03:47:26.010Z,80.68
2024-01-29T03:49:55.012Z,80.69
2024-01-29T03:52:24.221Z,80.93
2024-01-29T03:54:53.937Z,81.26
2024-01-29T03:57:23.831Z,81.43
2024-01-29T03:59:55.225Z,81.73
2024-01-29T04:02:24.247Z,81.79
2024-01-29T04:04:53.871Z,82.02
2024-01-29T04:07:23.703Z,82.25
2024-01-29T04:09:52.817Z,82.37
2024-01-29T04:12:22.022Z,82.54
2024-01-29T04:14:51.284Z,82.62
2024-01-29T04:17:20.269Z,82.64
2024-01-29T04:19:49.339Z,83.12
2024-01-29T04:22:18.346Z,83.30
2024-01-29T04:24:47.444Z,83.28
2024-01-29T04:27:16.456Z,83.48
2024-01-29T04:29:46.192Z,83.53
2024-01-29T04:32:15.285Z,83.34
2024-01-29T04:34:44.605Z,83.56
2024-01-29T04:37:13.530Z,83.67
2024-01-29T04:39:42.744Z,83.77
2024-01-29T04:42:12.144Z,83.94
2024-01-29T04:44:41.676Z,84.24
2024-01-29T04:47:10.801Z,84.82
2024-01-29T04:49:40.128Z,85.03
2024-01-29T04:52:09.240Z,85.20
2024-01-29T04:54:38.461Z,85.23
2024-01-29T04:57:07.698Z,85.13
2024-01-29T04:59:37.878Z,85.40
2024-01-29T05:02:06.901Z,85.08
2024-01-29T05:04:36.123Z,85.04
2024-01-29T05:07:05.553Z,84.78
2024-01-29T05:09:34.619Z,84.79
2024-01-29T05:12:03.796Z,84.32
2024-01-29T05:14:33.323Z,84.27
2024-01-29T05:17:02.596Z,84.18
2024-01-29T05:19:32.026Z,84.14
2024-01-29T05:22:03.089Z,84.34
2024-01-29T05:24:32.581Z,84.00
2024-01-29T05:27:01.778Z,83.73
2024-01-29T05:29:32.628Z,83.10
2024-01-29T05:32:02.454Z,82.85
2024-01-29T05:34:31.678Z,82.67
2024-01-29T05:37:00.903Z,82.54
2024-01-29T05:39:30.103Z,82.48
2024-01-29T05:41:59.282Z,82.25
2024-01-29T05:44:28.476Z,82.17
2024-01-29T05:46:57.650Z,82.19
2024-01-29T05:49:26.920Z,82.07
2024-01-29T05:51:56.831Z,82.16
2024-01-29T05:54:26.744Z,82.14
2024-01-29T05:56:57.945Z,82.20
2024-01-29T05:59:27.132Z,82.15
2024-01-29T06:01:56.253Z,82.26
2024-01-29T06:04:26.115Z,82.34
2024-01-29T06:06:55.531Z,82.23
2024-01-29T06:09:24.816Z,81.95
2024-01-29T06:11:54.636Z,81.73
2024-01-29T06:14:23.755Z,81.74
2024-01-29T06:16:52.781Z,81.81
2024-01-29T06:19:22.133Z,82.00
2024-01-29T06:21:51.352Z,81.94
2024-01-29T06:24:20.432Z,81.92
2024-01-29T06:26:49.933Z,81.87
2024-01-29T06:29:19.016Z,81.39
2024-01-29T06:31:48.037Z,81.17
2024-01-29T06:34:17.369Z,81.20
2024-01-29T06:36:46.550Z,80.82
2024-01-29T06:39:16.053Z,80.81
2024-01-29T06:41:45.250Z,80.99
2024-01-29T06:44:14.474Z,81.11
2024-01-29T06:46:43.582Z,80.84
2024-01-29T06:49:13.069Z,80.71
2024-01-29T06:51:42.210Z,80.70
2024-01-29T06:54:11.316Z,80.62
2024-01-29T06:56:40.619Z,80.51
2024-01-29T06:59:09.734Z,80.84
2024-01-29T07:01:38.908Z,81.01
2024-01-29T07:04:08.142Z,81.23
2024-01-29T07:06:38.499Z,81.41
2024-01-29T07:09:07.747Z,81.25
2024-01-29T07:11:36.685Z,81.24
2024-01-29T07:14:05.744Z,81.53
2024-01-29T07:16:34.781Z,81.55
2024-01-29T07:19:04.178Z,81.68
2024-01-29T07:21:33.319Z,81.53
2024-01-29T07:24:02.556Z,81.81
2024-01-29T07:26:31.588Z,81.69
2024-01-29T07:29:02.373Z,81.51
2024-01-29T07:31:31.828Z,81.21
2024-01-29T07:34:00.967Z,81.18
2024-01-29T07:36:30.108Z,80.98
2024-01-29T07:38:59.042Z,80.95
2024-01-29T07:41:28.020Z,80.81
2024-01-29T07:43:57.312Z,80.46
2024-01-29T07:46:26.660Z,79.87
2024-01-29T07:48:56.341Z,78.95
2024-01-29T07:51:25.834Z,78.43
2024-01-29T07:53:54.772Z,77.65
2024-01-29T07:56:23.930Z,76.85
2024-01-29T07:58:53.168Z,75.79
2024-01-29T08:01:22.283Z,74.34
2024-01-29T08:03:51.412Z,73.52
2024-01-29T08:06:20.838Z,72.28
2024-01-29T08:08:50.022Z,71.69
2024-01-29T08:11:19.117Z,70.92
2024-01-29T08:13:48.207Z,69.91
2024-01-29T08:16:17.264Z,68.86
2024-01-29T08:18:46.696Z,68.01
2024-01-29T08:21:15.875Z,66.84
2024-01-29T08:23:44.790Z,65.55
2024-01-29T08:26:14.071Z,65.25
2024-01-29T08:28:43.461Z,64.22
2024-01-29T08:31:12.522Z,63.50
2024-01-29T08:33:41.880Z,63.04
2024-01-29T08:36:11.328Z,62.64
2024-01-29T08:38:40.596Z,62.21
2024-01-29T08:41:09.926Z,61.77
2024-01-29T08:43:39.466Z,61.27
2024-01-29T08:46:08.573Z,61.89
2024-01-29T08:48:37.966Z,61.45
2024-01-29T08:51:07.551Z,61.65
2024-01-29T08:53:36.634Z,62.23
2024-01-29T08:56:08.794Z,62.22
2024-01-29T08:58:37.683Z,61.99
2024-01-29T09:01:07.173Z,61.54
2024-01-29T09:03:38.351Z,60.97
2024-01-29T09:06:09.204Z,60.56
2024-01-29T09:08:39.142Z,60.40
2024-01-29T09:11:08.053Z,60.41
2024-01-29T09:13:37.119Z,60.31
2024-01-29T09:16:06.658Z,60.73
2024-01-29T09:18:35.779Z,60.53
2024-01-29T09:21:05.505Z,60.30
2024-01-29T09:23:34.705Z,60.20
2024-01-29T09:26:03.690Z,60.27
2024-01-29T09:28:32.799Z,60.70
2024-01-29T09:31:02.015Z,60.97
2024-01-29T09:33:31.232Z,60.92
2024-01-29T09:36:00.497Z,60.97
2024-01-29T09:38:29.477Z,61.21
2024-01-29T09:40:58.578Z,61.35
2024-01-29T09:43:27.878Z,61.50
2024-01-29T09:45:57.258Z,61.71
2024-01-29T09:48:27.829Z,61.28
2024-01-29T09:50:58.750Z,59.96
2024-01-29T09:53:27.738Z,58.72
2024-01-29T09:55:57.604Z,58.14
2024-01-29T09:58:26.659Z,57.80
2024-01-29T10:00:56.050Z,57.03
2024-01-29T10:03:28.490Z,56.45
2024-01-29T10:05:57.697Z,56.54
2024-01-29T10:08:27.071Z,56.46
2024-01-29T10:10:56.080Z,55.93
2024-01-29T10:13:25.439Z,55.70
2024-01-29T10:15:54.452Z,55.36
2024-01-29T10:18:26.302Z,55.85
2024-01-29T10:21:04.048Z,55.95
2024-01-29T10:23:33.392Z,56.20
2024-01-29T10:26:02.649Z,56.70
2024-01-29T10:28:31.712Z,57.19
2024-01-29T10:31:02.207Z,57.50
2024-01-29T10:33:31.371Z,57.87
2024-01-29T10:36:00.755Z,58.59
2024-01-29T10:38:29.909Z,59.28
2024-01-29T10:40:59.048Z,59.49
2024-01-29T10:43:28.829Z,59.79
2024-01-29T10:45:58.037Z,60.25
2024-01-29T10:48:31.025Z,60.34
2024-01-29T10:51:00.609Z,60.23
2024-01-29T10:53:29.606Z,59.90
2024-01-29T10:55:58.747Z,59.95
2024-01-29T10:58:28.129Z,60.05
2024-01-29T11:00:57.177Z,60.28
2024-01-29T11:03:27.636Z,60.65
2024-01-29T11:05:58.476Z,60.86
2024-01-29T11:08:28.794Z,60.96
2024-01-29T11:10:59.257Z,61.14
2024-01-29T11:13:29.085Z,61.37
2024-01-29T11:15:58.183Z,61.79
2024-01-29T11:18:35.583Z,61.88
2024-01-29T11:21:20.775Z,62.10
2024-01-29T11:23:53.910Z,62.30
2024-01-29T11:26:24.573Z,62.74
2024-01-29T11:29:13.896Z,62.70
2024-01-29T11:31:52.902Z,62.96
2024-01-29T11:34:34.101Z,63.10
2024-01-29T11:37:06.594Z,63.23
2024-01-29T11:39:39.352Z,63.51
2024-01-29T11:42:08.748Z,63.60
2024-01-29T11:44:38.263Z,63.51
2024-01-29T11:47:10.903Z,62.99
2024-01-29T11:49:42.237Z,62.71
2024-01-29T11:52:12.767Z,62.13
2024-01-29T11:54:41.908Z,61.20
2024-01-29T11:57:10.980Z,59.95
2024-01-29T11:59:47.223Z,58.51
2024-01-29T12:02:17.943Z,57.31
2024-01-29T12:04:47.035Z,56.54
2024-01-29T12:07:16.762Z,55.61
2024-01-29T12:09:46.673Z,53.83
2024-01-29T12:12:15.972Z,51.99
2024-01-29T12:14:45.176Z,50.71
2024-01-29T12:17:16.081Z,49.33
2024-01-29T12:19:45.046Z,47.71
2024-01-29T12:22:15.583Z,46.42
2024-01-29T12:24:45.180Z,45.80
2024-01-29T12:27:14.932Z,45.45
2024-01-29T12:29:44.191Z,44.61
2024-01-29T12:32:13.722Z,43.90
2024-01-29T12:34:46.142Z,43.28
2024-01-29T12:37:22.438Z,43.04
2024-01-29T12:39:53.452Z,42.57
2024-01-29T12:42:22.789Z,41.63
2024-01-29T12:44:52.797Z,40.89
2024-01-29T12:47:21.958Z,41.08
2024-01-29T12:49:51.372Z,40.56
2024-01-29T12:52:20.912Z,40.50
2024-01-29T12:54:50.260Z,40.73
2024-01-29T12:57:19.562Z,40.94
2024-01-29T12:59:50.500Z,41.68
2024-01-29T13:02:19.519Z,41.91
2024-01-29T13:04:48.709Z,42.78
2024-01-29T13:07:17.854Z,43.52
2024-01-29T13:09:46.926Z,44.39
2024-01-29T13:12:16.053Z,44.57
2024-01-29T13:14:46.522Z,44.87
2024-01-29T13:17:15.626Z,45.62
2024-01-29T13:19:44.716Z,46.48
2024-01-29T13:22:13.913Z,47.08
2024-01-29T13:24:43.137Z,47.68
2024-01-29T13:27:12.093Z,48.11
2024-01-29T13:29:42.026Z,48.81
2024-01-29T13:32:11.591Z,49.43
2024-01-29T13:34:40.718Z,49.49
2024-01-29T13:37:10.695Z,49.92
2024-01-29T13:39:40.052Z,50.94
2024-01-29T13:42:09.857Z,51.94
2024-01-29T13:44:38.929Z,52.89
2024-01-29T13:47:08.728Z,53.49
2024-01-29T13:49:38.923Z,54.14
2024-01-29T13:52:08.524Z,54.74
2024-01-29T13:54:38.704Z,55.16
2024-01-29T13:57:07.869Z,55.37
2024-01-29T13:59:37.150Z,56.01
2024-01-29T14:02:06.583Z,56.45
2024-01-29T14:04:35.608Z,57.09
2024-01-29T14:07:08.306Z,57.49
2024-01-29T14:09:38.058Z,58.00
2024-01-29T14:12:08.397Z,58.29
2024-01-29T14:14:43.860Z,58.84
2024-01-29T14:17:16.184Z,59.34
2024-01-29T14:19:45.523Z,59.66
2024-01-29T14:22:14.685Z,60.09
2024-01-29T14:24:43.698Z,60.48
2024-01-29T14:27:14.111Z,60.72
2024-01-29T14:29:43.037Z,61.27
2024-01-29T14:32:15.042Z,61.55
2024-01-29T14:34:44.893Z,61.78
2024-01-29T14:37:14.859Z,62.25
2024-01-29T14:39:44.153Z,62.42
2024-01-29T14:42:13.546Z,62.70
2024-01-29T14:44:42.722Z,63.05
2024-01-29T14:47:14.204Z,63.27
2024-01-29T14:49:45.026Z,63.29
2024-01-29T14:52:14.790Z,63.75
2024-01-29T14:54:43.937Z,63.87
2024-01-29T14:57:13.242Z,64.22
2024-01-29T14:59:42.731Z,64.52
2024-01-29T15:02:11.931Z,64.69
2024-01-29T15:08:24.083Z,65.15
2024-01-29T15:15:01.844Z,66.01
2024-01-29T15:18:06.189Z,66.02
2024-01-29T15:21:17.023Z,66.54
2024-01-29T15:30:47.899Z,68.11
2024-01-29T15:33:59.676Z,68.51
2024-01-29T15:37:10.412Z,69.30
2024-01-29T15:50:14.141Z,71.44
2024-01-29T15:53:39.850Z,71.81
2024-01-29T15:57:12.895Z,72.16
2024-01-29T16:09:03.452Z,73.81
2024-01-29T16:11:56.424Z,74.09
2024-01-29T16:18:12.644Z,74.31
2024-01-29T16:21:04.394Z,74.25
2024-01-29T16:24:28.335Z,74.56
2024-01-29T16:27:17.081Z,74.86
2024-01-29T16:33:34.918Z,75.09
2024-01-29T16:36:44.940Z,75.47
2024-01-29T16:39:35.780Z,75.98
2024-01-29T16:42:40.231Z,76.31
2024-01-29T16:45:12.781Z,76.89
2024-01-29T16:48:22.323Z,77.23
2024-01-29T16:51:40.107Z,77.67
2024-01-29T16:57:47.039Z,78.61
2024-01-29T17:04:48.104Z,79.43
2024-01-29T17:07:56.261Z,79.82
2024-01-29T17:10:56.545Z,80.37
2024-01-29T17:17:15.773Z,81.09
2024-01-29T17:40:04.892Z,82.09
2024-01-29T17:44:00.382Z,82.14
2024-01-29T17:47:18.375Z,82.23
2024-01-29T17:50:18.755Z,82.05
2024-01-29T17:53:21.817Z,81.94
2024-01-29T17:56:18.995Z,81.84
2024-01-29T18:06:56.352Z,81.07
2024-01-29T18:12:54.681Z,80.68
2024-01-29T18:16:11.042Z,80.56
2024-01-29T18:19:21.744Z,80.33
2024-01-29T18:32:31.011Z,80.72
2024-01-29T18:42:36.808Z,81.09
2024-01-29T18:45:37.543Z,81.27
2024-01-29T18:54:23.955Z,81.14
2024-01-29T19:06:39.990Z,80.55
2024-01-29T19:13:05.053Z,80.48
2024-01-29T19:16:27.900Z,80.18
2024-01-29T19:20:07.426Z,80.00
2024-01-29T19:23:59.970Z,80.10
2024-01-29T19:31:11.514Z,80.62
2024-01-29T19:36:52.698Z,81.39
2024-01-29T19:39:48.832Z,81.37
2024-01-29T19:42:46.597Z,82.01
2024-01-29T19:48:36.932Z,82.10
2024-01-29T19:54:13.117Z,82.03
2024-01-29T19:56:46.632Z,82.37
2024-01-29T19:59:30.636Z,82.61
2024-01-29T20:02:09.283Z,82.74
2024-01-29T20:04:40.537Z,83.16
2024-01-29T20:07:15.167Z,83.24
2024-01-29T20:09:50.505Z,83.40
2024-01-29T20:12:28.994Z,83.50
2024-01-29T20:15:07.262Z,83.57
2024-01-29T20:17:45.292Z,83.61
2024-01-29T20:20:17.420Z,83.83
2024-01-29T20:22:48.976Z,84.14
2024-01-29T20:25:22.864Z,84.55
2024-01-29T20:27:57.041Z,84.55
2024-01-29T20:30:33.034Z,84.48
2024-01-29T20:33:05.307Z,84.45
2024-01-29T20:35:43.940Z,84.79
2024-01-29T20:38:22.699Z,84.66
2024-01-29T20:41:08.418Z,84.65
2024-01-29T20:43:42.009Z,84.50
2024-01-29T20:46:23.111Z,84.35
2024-01-29T20:48:56.474Z,84.47
2024-01-29T20:51:33.767Z,84.56
2024-01-29T20:54:11.411Z,84.59
2024-01-29T20:57:03.834Z,84.63
2024-01-29T20:59:34.725Z,84.86
2024-01-29T21:02:16.354Z,84.98
2024-01-29T21:05:01.594Z,85.13
2024-01-29T21:07:43.727Z,85.14
2024-01-29T21:10:25.459Z,85.49
2024-01-29T21:13:08.164Z,85.63
2024-01-29T21:16:01.556Z,85.72
2024-01-29T21:18:43.843Z,85.67
2024-01-29T21:21:36.236Z,85.88
2024-01-29T21:24:11.657Z,85.81
2024-01-29T21:26:50.171Z,86.17
2024-01-29T21:29:29.579Z,86.26
2024-01-29T21:32:22.637Z,86.39
2024-01-29T21:35:11.172Z,86.42
2024-01-29T21:37:56.027Z,86.78
2024-01-29T21:40:55.973Z,86.64
2024-01-29T21:43:44.795Z,86.76
2024-01-29T21:46:25.223Z,87.10
2024-01-29T21:49:17.109Z,87.10
2024-01-29T21:51:58.279Z,86.87
2024-01-29T21:54:48.296Z,87.06
2024-01-29T21:57:40.683Z,87.18
2024-01-29T22:00:25.002Z,87.67
2024-01-29T22:03:15.239Z,87.84
2024-01-29T22:05:59.733Z,88.08
2024-01-29T22:08:41.179Z,88.05
2024-01-29T22:11:23.915Z,88.17
2024-01-29T22:14:20.064Z,88.20
2024-01-29T22:17:13.191Z,88.85
2024-01-29T22:20:03.305Z,88.95
2024-01-29T22:22:52.359Z,88.48
2024-01-29T22:25:43.898Z,88.27
2024-01-29T22:28:32.879Z,88.58
2024-01-29T22:31:19.626Z,88.69
2024-01-29T22:33:58.757Z,88.73
2024-01-29T22:37:03.049Z,88.52
2024-01-29T22:39:51.982Z,88.25
2024-01-29T22:42:35.498Z,88.08
2024-01-29T22:45:30.153Z,88.11
2024-01-29T22:48:18.131Z,87.94
2024-01-29T22:51:46.285Z,88.05
2024-01-29T22:54:21.813Z,87.99
2024-01-29T22:57:33.439Z,88.19
2024-01-29T23:03:53.162Z,88.49
2024-01-29T23:06:51.187Z,88.86
2024-01-29T23:14:08.691Z,88.51
2024-01-29T23:16:55.875Z,88.51
2024-01-29T23:19:53.615Z,88.30
2024-01-29T23:23:25.794Z,88.18
2024-01-29T23:39:30.842Z,87.94
2024-01-29T23:53:22.082Z,88.35
